sensor_id;sensor_type;location;lat;lon;timestamp;temperature;humidity
5324;DHT22;2684;48.154;11.538;2022-09-09T00:00:18;16.60;99.90
5324;DHT22;2684;48.154;11.538;2022-09-09T00:02:54;16.60;99.90
5324;DHT22;2684;48.154;11.538;2022-09-09T00:05:29;16.60;99.90
5324;DHT22;2684;48.154;11.538;2022-09-09T00:08:02;16.60;99.90
5324;DHT22;2684;48.154;11.538;2022-09-09T00:10:33;16.60;99.90
5324;DHT22;2684;48.154;11.538;2022-09-09T00:13:07;16.60;99.90
5324;DHT22;2684;48.154;11.538;2022-09-09T00:15:41;16.60;99.90
5324;DHT22;2684;48.154;11.538;2022-09-09T00:18:17;16.50;99.90
5324;DHT22;2684;48.154;11.538;2022-09-09T00:20:52;16.50;99.90
5324;DHT22;2684;48.154;11.538;2022-09-09T00:23:25;16.50;99.90
5324;DHT22;2684;48.154;11.538;2022-09-09T00:25:59;16.50;99.90
5324;DHT22;2684;48.154;11.538;2022-09-09T00:28:29;16.50;99.90
5324;DHT22;2684;48.154;11.538;2022-09-09T00:31:00;16.40;99.90
5324;DHT22;2684;48.154;11.538;2022-09-09T00:33:30;16.40;99.90
5324;DHT22;2684;48.154;11.538;2022-09-09T00:35:58;16.40;99.90
5324;DHT22;2684;48.154;11.538;2022-09-09T00:38:32;16.40;99.90
5324;DHT22;2684;48.154;11.538;2022-09-09T00:41:04;16.40;99.90
5324;DHT22;2684;48.154;11.538;2022-09-09T00:43:36;16.40;99.90
5324;DHT22;2684;48.154;11.538;2022-09-09T00:49:02;16.40;99.90
5324;DHT22;2684;48.154;11.538;2022-09-09T00:51:39;16.30;99.90
5324;DHT22;2684;48.154;11.538;2022-09-09T00:54:31;16.30;99.90
5324;DHT22;2684;48.154;11.538;2022-09-09T00:57:10;16.30;99.90
5324;DHT22;2684;48.154;11.538;2022-09-09T00:59:46;16.30;99.90
5324;DHT22;2684;48.154;11.538;2022-09-09T01:02:19;16.30;99.90
5324;DHT22;2684;48.154;11.538;2022-09-09T01:04:48;16.20;99.90
5324;DHT22;2684;48.154;11.538;2022-09-09T01:07:17;16.20;99.90
5324;DHT22;2684;48.154;11.538;2022-09-09T01:09:52;16.10;99.90
5324;DHT22;2684;48.154;11.538;2022-09-09T01:12:27;16.00;99.90
5324;DHT22;2684;48.154;11.538;2022-09-09T01:15:01;16.10;99.90
5324;DHT22;2684;48.154;11.538;2022-09-09T01:17:31;16.00;99.90
5324;DHT22;2684;48.154;11.538;2022-09-09T01:20:09;16.10;99.90
5324;DHT22;2684;48.154;11.538;2022-09-09T01:22:47;16.10;99.90
5324;DHT22;2684;48.154;11.538;2022-09-09T01:25:29;16.20;99.90
5324;DHT22;2684;48.154;11.538;2022-09-09T01:28:00;16.20;99.90
5324;DHT22;2684;48.154;11.538;2022-09-09T01:30:30;16.20;99.90
5324;DHT22;2684;48.154;11.538;2022-09-09T01:32:58;16.20;99.90
5324;DHT22;2684;48.154;11.538;2022-09-09T01:35:36;16.10;99.90
5324;DHT22;2684;48.154;11.538;2022-09-09T01:38:05;16.20;99.90
5324;DHT22;2684;48.154;11.538;2022-09-09T01:40:33;16.20;99.90
5324;DHT22;2684;48.154;11.538;2022-09-09T01:43:01;16.20;99.90
5324;DHT22;2684;48.154;11.538;2022-09-09T01:45:29;16.20;99.90
5324;DHT22;2684;48.154;11.538;2022-09-09T01:47:56;16.10;99.90
5324;DHT22;2684;48.154;11.538;2022-09-09T01:50:23;16.10;99.90
5324;DHT22;2684;48.154;11.538;2022-09-09T01:52:58;16.10;99.90
5324;DHT22;2684;48.154;11.538;2022-09-09T01:55:30;16.00;99.90
5324;DHT22;2684;48.154;11.538;2022-09-09T01:58:09;15.90;99.90
5324;DHT22;2684;48.154;11.538;2022-09-09T02:00:43;15.90;99.90
5324;DHT22;2684;48.154;11.538;2022-09-09T02:03:20;15.80;99.90
5324;DHT22;2684;48.154;11.538;2022-09-09T02:05:52;15.70;99.90
5324;DHT22;2684;48.154;11.538;2022-09-09T02:08:35;15.70;99.90
5324;DHT22;2684;48.154;11.538;2022-09-09T02:11:10;15.60;99.90
5324;DHT22;2684;48.154;11.538;2022-09-09T02:13:40;15.60;99.90
5324;DHT22;2684;48.154;11.538;2022-09-09T02:16:13;15.60;99.90
5324;DHT22;2684;48.154;11.538;2022-09-09T02:18:47;15.60;99.90
5324;DHT22;2684;48.154;11.538;2022-09-09T02:21:15;15.60;99.90
5324;DHT22;2684;48.154;11.538;2022-09-09T02:23:43;15.50;99.90
5324;DHT22;2684;48.154;11.538;2022-09-09T02:26:13;15.50;99.90
5324;DHT22;2684;48.154;11.538;2022-09-09T02:28:47;15.50;99.90
5324;DHT22;2684;48.154;11.538;2022-09-09T02:31:18;15.50;99.90
5324;DHT22;2684;48.154;11.538;2022-09-09T02:33:51;15.50;99.90
5324;DHT22;2684;48.154;11.538;2022-09-09T02:36:21;15.50;99.90
5324;DHT22;2684;48.154;11.538;2022-09-09T02:38:50;15.50;99.90
5324;DHT22;2684;48.154;11.538;2022-09-09T02:41:22;15.50;99.90
5324;DHT22;2684;48.154;11.538;2022-09-09T02:43:52;15.60;99.90
5324;DHT22;2684;48.154;11.538;2022-09-09T02:46:28;15.60;99.90
5324;DHT22;2684;48.154;11.538;2022-09-09T02:49:01;15.60;99.90
5324;DHT22;2684;48.154;11.538;2022-09-09T02:51:37;15.60;99.90
5324;DHT22;2684;48.154;11.538;2022-09-09T02:54:13;15.60;99.90
5324;DHT22;2684;48.154;11.538;2022-09-09T02:56:47;15.50;99.90
5324;DHT22;2684;48.154;11.538;2022-09-09T02:59:18;15.50;99.90
5324;DHT22;2684;48.154;11.538;2022-09-09T03:01:45;15.50;99.90
5324;DHT22;2684;48.154;11.538;2022-09-09T03:04:12;15.50;99.90
5324;DHT22;2684;48.154;11.538;2022-09-09T03:06:39;15.40;99.90
5324;DHT22;2684;48.154;11.538;2022-09-09T03:09:07;15.40;99.90
5324;DHT22;2684;48.154;11.538;2022-09-09T03:11:36;15.40;99.90
5324;DHT22;2684;48.154;11.538;2022-09-09T03:14:03;15.30;99.90
5324;DHT22;2684;48.154;11.538;2022-09-09T03:16:32;15.30;99.90
5324;DHT22;2684;48.154;11.538;2022-09-09T03:19:00;15.30;99.90
5324;DHT22;2684;48.154;11.538;2022-09-09T03:21:27;15.30;99.90
5324;DHT22;2684;48.154;11.538;2022-09-09T03:23:53;15.30;99.90
5324;DHT22;2684;48.154;11.538;2022-09-09T03:26:21;15.30;99.90
5324;DHT22;2684;48.154;11.538;2022-09-09T03:28:48;15.30;99.90
5324;DHT22;2684;48.154;11.538;2022-09-09T03:31:18;15.30;99.90
5324;DHT22;2684;48.154;11.538;2022-09-09T03:33:46;15.30;99.90
5324;DHT22;2684;48.154;11.538;2022-09-09T03:36:13;15.20;99.90
5324;DHT22;2684;48.154;11.538;2022-09-09T03:38:40;15.20;99.90
5324;DHT22;2684;48.154;11.538;2022-09-09T03:41:08;15.20;99.90
5324;DHT22;2684;48.154;11.538;2022-09-09T03:43:34;15.20;99.90
5324;DHT22;2684;48.154;11.538;2022-09-09T03:46:03;15.20;99.90
5324;DHT22;2684;48.154;11.538;2022-09-09T03:48:30;15.20;99.90
5324;DHT22;2684;48.154;11.538;2022-09-09T03:50:58;15.30;99.90
5324;DHT22;2684;48.154;11.538;2022-09-09T03:53:28;15.30;99.90
5324;DHT22;2684;48.154;11.538;2022-09-09T03:55:57;15.30;99.90
5324;DHT22;2684;48.154;11.538;2022-09-09T03:58:26;15.30;99.90
5324;DHT22;2684;48.154;11.538;2022-09-09T04:00:55;15.40;99.90
5324;DHT22;2684;48.154;11.538;2022-09-09T04:03:22;15.30;99.90
5324;DHT22;2684;48.154;11.538;2022-09-09T04:05:50;15.30;99.90
5324;DHT22;2684;48.154;11.538;2022-09-09T04:08:18;15.30;99.90
5324;DHT22;2684;48.154;11.538;2022-09-09T04:10:45;15.30;99.90
5324;DHT22;2684;48.154;11.538;2022-09-09T04:13:13;15.40;99.90
5324;DHT22;2684;48.154;11.538;2022-09-09T04:15:41;15.40;99.90
5324;DHT22;2684;48.154;11.538;2022-09-09T04:18:09;15.40;99.90
5324;DHT22;2684;48.154;11.538;2022-09-09T04:20:37;15.50;99.90
5324;DHT22;2684;48.154;11.538;2022-09-09T04:23:04;15.50;99.90
5324;DHT22;2684;48.154;11.538;2022-09-09T04:25:32;15.50;99.90
5324;DHT22;2684;48.154;11.538;2022-09-09T04:27:59;15.50;99.90
5324;DHT22;2684;48.154;11.538;2022-09-09T04:30:26;15.50;99.90
5324;DHT22;2684;48.154;11.538;2022-09-09T04:32:53;15.50;99.90
5324;DHT22;2684;48.154;11.538;2022-09-09T04:35:20;15.40;99.90
5324;DHT22;2684;48.154;11.538;2022-09-09T04:37:47;15.40;99.90
5324;DHT22;2684;48.154;11.538;2022-09-09T04:40:14;15.40;99.90
5324;DHT22;2684;48.154;11.538;2022-09-09T04:42:42;15.40;99.90
5324;DHT22;2684;48.154;11.538;2022-09-09T04:45:10;15.30;99.90
5324;DHT22;2684;48.154;11.538;2022-09-09T04:47:38;15.20;99.90
5324;DHT22;2684;48.154;11.538;2022-09-09T04:50:07;15.10;99.90
5324;DHT22;2684;48.154;11.538;2022-09-09T04:52:34;15.10;99.90
5324;DHT22;2684;48.154;11.538;2022-09-09T04:55:01;15.10;99.90
5324;DHT22;2684;48.154;11.538;2022-09-09T04:57:28;15.20;99.90
5324;DHT22;2684;48.154;11.538;2022-09-09T04:59:58;15.20;99.90
5324;DHT22;2684;48.154;11.538;2022-09-09T05:02:25;15.20;99.90
5324;DHT22;2684;48.154;11.538;2022-09-09T05:04:52;15.20;99.90
5324;DHT22;2684;48.154;11.538;2022-09-09T05:07:19;15.20;99.90
5324;DHT22;2684;48.154;11.538;2022-09-09T05:09:46;15.20;99.90
5324;DHT22;2684;48.154;11.538;2022-09-09T05:12:14;15.20;99.90
5324;DHT22;2684;48.154;11.538;2022-09-09T05:14:42;15.10;99.90
5324;DHT22;2684;48.154;11.538;2022-09-09T05:17:10;15.20;99.90
5324;DHT22;2684;48.154;11.538;2022-09-09T05:19:38;15.20;99.90
5324;DHT22;2684;48.154;11.538;2022-09-09T05:22:05;15.10;99.90
5324;DHT22;2684;48.154;11.538;2022-09-09T05:24:32;15.10;99.90
5324;DHT22;2684;48.154;11.538;2022-09-09T05:26:59;15.20;99.90
5324;DHT22;2684;48.154;11.538;2022-09-09T05:29:27;15.20;99.90
5324;DHT22;2684;48.154;11.538;2022-09-09T05:31:54;15.20;99.90
5324;DHT22;2684;48.154;11.538;2022-09-09T05:34:22;15.20;99.90
5324;DHT22;2684;48.154;11.538;2022-09-09T05:36:49;15.20;99.90
5324;DHT22;2684;48.154;11.538;2022-09-09T05:39:16;15.20;99.90
5324;DHT22;2684;48.154;11.538;2022-09-09T05:41:43;15.20;99.90
5324;DHT22;2684;48.154;11.538;2022-09-09T05:44:10;15.30;99.90
5324;DHT22;2684;48.154;11.538;2022-09-09T05:46:37;15.30;99.90
5324;DHT22;2684;48.154;11.538;2022-09-09T05:49:04;15.40;99.90
5324;DHT22;2684;48.154;11.538;2022-09-09T05:51:33;15.40;99.90
5324;DHT22;2684;48.154;11.538;2022-09-09T05:53:59;15.50;99.90
5324;DHT22;2684;48.154;11.538;2022-09-09T05:56:28;15.50;99.90
5324;DHT22;2684;48.154;11.538;2022-09-09T05:58:55;15.50;99.90
5324;DHT22;2684;48.154;11.538;2022-09-09T06:01:24;15.50;99.90
5324;DHT22;2684;48.154;11.538;2022-09-09T06:03:51;15.70;99.90
5324;DHT22;2684;48.154;11.538;2022-09-09T06:06:20;15.80;99.90
5324;DHT22;2684;48.154;11.538;2022-09-09T06:08:51;15.80;99.90
5324;DHT22;2684;48.154;11.538;2022-09-09T06:11:19;15.80;99.90
5324;DHT22;2684;48.154;11.538;2022-09-09T06:13:47;15.80;99.90
5324;DHT22;2684;48.154;11.538;2022-09-09T06:16:18;15.90;99.90
5324;DHT22;2684;48.154;11.538;2022-09-09T06:18:45;16.00;99.90
5324;DHT22;2684;48.154;11.538;2022-09-09T06:21:16;16.00;99.90
5324;DHT22;2684;48.154;11.538;2022-09-09T06:23:43;16.00;99.90
5324;DHT22;2684;48.154;11.538;2022-09-09T06:26:13;16.10;99.90
5324;DHT22;2684;48.154;11.538;2022-09-09T06:28:40;16.20;99.90
5324;DHT22;2684;48.154;11.538;2022-09-09T06:31:09;16.20;99.90
5324;DHT22;2684;48.154;11.538;2022-09-09T06:33:38;16.30;99.90
5324;DHT22;2684;48.154;11.538;2022-09-09T06:36:07;16.30;99.90
5324;DHT22;2684;48.154;11.538;2022-09-09T06:38:36;16.30;99.90
5324;DHT22;2684;48.154;11.538;2022-09-09T06:41:04;16.30;99.90
5324;DHT22;2684;48.154;11.538;2022-09-09T06:43:32;16.40;99.90
5324;DHT22;2684;48.154;11.538;2022-09-09T06:46:03;16.40;99.90
5324;DHT22;2684;48.154;11.538;2022-09-09T06:48:30;16.50;99.90
5324;DHT22;2684;48.154;11.538;2022-09-09T06:51:02;16.50;99.90
5324;DHT22;2684;48.154;11.538;2022-09-09T06:53:29;16.60;99.90
5324;DHT22;2684;48.154;11.538;2022-09-09T06:55:56;16.70;99.90
5324;DHT22;2684;48.154;11.538;2022-09-09T06:58:23;16.90;99.90
5324;DHT22;2684;48.154;11.538;2022-09-09T07:00:51;16.90;99.90
5324;DHT22;2684;48.154;11.538;2022-09-09T07:03:18;17.00;99.90
5324;DHT22;2684;48.154;11.538;2022-09-09T07:05:54;17.00;99.90
5324;DHT22;2684;48.154;11.538;2022-09-09T07:08:21;16.90;99.90
5324;DHT22;2684;48.154;11.538;2022-09-09T07:10:48;17.00;99.90
5324;DHT22;2684;48.154;11.538;2022-09-09T07:13:15;17.00;99.90
5324;DHT22;2684;48.154;11.538;2022-09-09T07:15:41;17.00;99.90
5324;DHT22;2684;48.154;11.538;2022-09-09T07:18:10;16.90;99.90
5324;DHT22;2684;48.154;11.538;2022-09-09T07:20:37;16.90;99.90
5324;DHT22;2684;48.154;11.538;2022-09-09T07:23:03;16.90;99.90
5324;DHT22;2684;48.154;11.538;2022-09-09T07:25:30;16.80;99.90
5324;DHT22;2684;48.154;11.538;2022-09-09T07:27:57;16.80;99.90
5324;DHT22;2684;48.154;11.538;2022-09-09T07:30:24;16.80;99.90
5324;DHT22;2684;48.154;11.538;2022-09-09T07:32:51;16.90;99.90
5324;DHT22;2684;48.154;11.538;2022-09-09T07:35:19;17.00;99.90
5324;DHT22;2684;48.154;11.538;2022-09-09T07:37:46;17.10;99.90
5324;DHT22;2684;48.154;11.538;2022-09-09T07:40:13;17.20;99.90
5324;DHT22;2684;48.154;11.538;2022-09-09T07:42:40;17.30;99.90
5324;DHT22;2684;48.154;11.538;2022-09-09T07:45:07;17.50;99.90
5324;DHT22;2684;48.154;11.538;2022-09-09T07:47:34;17.60;99.90
5324;DHT22;2684;48.154;11.538;2022-09-09T07:50:01;17.70;99.90
5324;DHT22;2684;48.154;11.538;2022-09-09T07:52:29;17.80;99.90
5324;DHT22;2684;48.154;11.538;2022-09-09T07:54:56;17.90;99.90
5324;DHT22;2684;48.154;11.538;2022-09-09T07:57:23;17.80;99.90
5324;DHT22;2684;48.154;11.538;2022-09-09T07:59:49;17.80;99.90
5324;DHT22;2684;48.154;11.538;2022-09-09T08:02:18;17.70;99.90
5324;DHT22;2684;48.154;11.538;2022-09-09T08:04:45;17.70;99.90
5324;DHT22;2684;48.154;11.538;2022-09-09T08:07:11;17.70;99.90
5324;DHT22;2684;48.154;11.538;2022-09-09T08:09:40;17.90;99.90
5324;DHT22;2684;48.154;11.538;2022-09-09T08:12:06;18.10;99.90
5324;DHT22;2684;48.154;11.538;2022-09-09T08:14:34;18.20;99.90
5324;DHT22;2684;48.154;11.538;2022-09-09T08:17:01;18.30;99.90
5324;DHT22;2684;48.154;11.538;2022-09-09T08:19:28;18.40;99.90
5324;DHT22;2684;48.154;11.538;2022-09-09T08:21:55;18.40;99.90
5324;DHT22;2684;48.154;11.538;2022-09-09T08:24:22;18.60;99.90
5324;DHT22;2684;48.154;11.538;2022-09-09T08:26:50;18.70;99.90
5324;DHT22;2684;48.154;11.538;2022-09-09T08:29:19;18.70;99.90
5324;DHT22;2684;48.154;11.538;2022-09-09T08:31:48;18.80;99.90
5324;DHT22;2684;48.154;11.538;2022-09-09T08:34:15;18.90;99.90
5324;DHT22;2684;48.154;11.538;2022-09-09T08:36:44;19.00;99.90
5324;DHT22;2684;48.154;11.538;2022-09-09T08:39:12;19.20;99.90
5324;DHT22;2684;48.154;11.538;2022-09-09T08:45:10;19.10;99.90
5324;DHT22;2684;48.154;11.538;2022-09-09T08:47:45;19.00;99.90
5324;DHT22;2684;48.154;11.538;2022-09-09T08:50:21;18.90;99.90
5324;DHT22;2684;48.154;11.538;2022-09-09T08:52:54;18.90;99.90
5324;DHT22;2684;48.154;11.538;2022-09-09T08:55:28;18.90;99.90
5324;DHT22;2684;48.154;11.538;2022-09-09T08:58:05;18.80;99.90
5324;DHT22;2684;48.154;11.538;2022-09-09T09:00:43;18.80;99.90
5324;DHT22;2684;48.154;11.538;2022-09-09T09:03:18;18.80;99.90
5324;DHT22;2684;48.154;11.538;2022-09-09T09:06:04;18.70;99.90
5324;DHT22;2684;48.154;11.538;2022-09-09T09:08:38;18.70;99.90
5324;DHT22;2684;48.154;11.538;2022-09-09T09:11:07;18.70;99.90
5324;DHT22;2684;48.154;11.538;2022-09-09T09:13:40;18.80;99.90
5324;DHT22;2684;48.154;11.538;2022-09-09T09:16:17;18.80;99.90
5324;DHT22;2684;48.154;11.538;2022-09-09T09:18:46;19.00;99.90
5324;DHT22;2684;48.154;11.538;2022-09-09T09:21:16;18.90;99.90
5324;DHT22;2684;48.154;11.538;2022-09-09T09:23:48;18.90;99.90
5324;DHT22;2684;48.154;11.538;2022-09-09T09:26:16;18.80;99.90
5324;DHT22;2684;48.154;11.538;2022-09-09T09:28:45;18.80;99.90
5324;DHT22;2684;48.154;11.538;2022-09-09T09:31:12;18.90;99.90
5324;DHT22;2684;48.154;11.538;2022-09-09T09:33:47;19.10;99.90
5324;DHT22;2684;48.154;11.538;2022-09-09T09:36:15;19.20;99.90
5324;DHT22;2684;48.154;11.538;2022-09-09T09:38:52;19.30;99.90
5324;DHT22;2684;48.154;11.538;2022-09-09T09:41:32;19.30;99.90
5324;DHT22;2684;48.154;11.538;2022-09-09T09:44:01;19.30;99.90
5324;DHT22;2684;48.154;11.538;2022-09-09T09:46:28;19.30;99.90
5324;DHT22;2684;48.154;11.538;2022-09-09T09:48:59;19.30;99.90
5324;DHT22;2684;48.154;11.538;2022-09-09T09:51:29;19.20;99.90
5324;DHT22;2684;48.154;11.538;2022-09-09T09:54:09;19.00;99.90
5324;DHT22;2684;48.154;11.538;2022-09-09T09:56:41;18.90;99.90
5324;DHT22;2684;48.154;11.538;2022-09-09T09:59:22;18.70;99.90
5324;DHT22;2684;48.154;11.538;2022-09-09T10:01:49;18.70;99.90
5324;DHT22;2684;48.154;11.538;2022-09-09T10:04:19;18.50;99.90
5324;DHT22;2684;48.154;11.538;2022-09-09T10:06:49;18.30;99.90
5324;DHT22;2684;48.154;11.538;2022-09-09T10:09:23;18.30;99.90
5324;DHT22;2684;48.154;11.538;2022-09-09T10:11:57;18.20;99.90
5324;DHT22;2684;48.154;11.538;2022-09-09T10:14:35;18.20;99.90
5324;DHT22;2684;48.154;11.538;2022-09-09T10:17:13;18.20;99.90
5324;DHT22;2684;48.154;11.538;2022-09-09T10:19:47;18.20;99.90
5324;DHT22;2684;48.154;11.538;2022-09-09T10:22:25;18.10;99.90
5324;DHT22;2684;48.154;11.538;2022-09-09T10:25:09;18.20;99.90
5324;DHT22;2684;48.154;11.538;2022-09-09T10:27:45;18.30;99.90
5324;DHT22;2684;48.154;11.538;2022-09-09T10:30:19;18.40;99.90
5324;DHT22;2684;48.154;11.538;2022-09-09T10:32:48;18.60;99.90
5324;DHT22;2684;48.154;11.538;2022-09-09T10:35:31;18.70;99.90
5324;DHT22;2684;48.154;11.538;2022-09-09T10:38:12;18.80;99.90
5324;DHT22;2684;48.154;11.538;2022-09-09T10:40:46;18.80;99.90
5324;DHT22;2684;48.154;11.538;2022-09-09T10:43:25;18.90;99.90
5324;DHT22;2684;48.154;11.538;2022-09-09T10:46:14;19.20;99.90
5324;DHT22;2684;48.154;11.538;2022-09-09T10:59:35;19.60;99.90
5324;DHT22;2684;48.154;11.538;2022-09-09T11:02:12;19.50;99.90
5324;DHT22;2684;48.154;11.538;2022-09-09T11:04:44;19.30;99.90
5324;DHT22;2684;48.154;11.538;2022-09-09T11:07:17;19.40;99.90
5324;DHT22;2684;48.154;11.538;2022-09-09T11:09:50;19.60;99.90
5324;DHT22;2684;48.154;11.538;2022-09-09T11:12:21;20.00;99.90
5324;DHT22;2684;48.154;11.538;2022-09-09T11:14:53;20.40;99.90
5324;DHT22;2684;48.154;11.538;2022-09-09T11:17:26;20.60;99.90
5324;DHT22;2684;48.154;11.538;2022-09-09T11:19:53;20.80;99.90
5324;DHT22;2684;48.154;11.538;2022-09-09T11:22:29;21.10;99.90
5324;DHT22;2684;48.154;11.538;2022-09-09T11:25:01;20.80;99.90
5324;DHT22;2684;48.154;11.538;2022-09-09T11:27:36;20.90;99.90
5324;DHT22;2684;48.154;11.538;2022-09-09T11:30:18;21.00;99.90
5324;DHT22;2684;48.154;11.538;2022-09-09T11:33:26;20.60;99.90
5324;DHT22;2684;48.154;11.538;2022-09-09T11:36:05;20.80;99.90
5324;DHT22;2684;48.154;11.538;2022-09-09T11:38:38;21.20;99.90
5324;DHT22;2684;48.154;11.538;2022-09-09T11:41:08;21.40;99.90
5324;DHT22;2684;48.154;11.538;2022-09-09T11:43:39;21.70;99.90
5324;DHT22;2684;48.154;11.538;2022-09-09T11:46:08;22.10;99.90
5324;DHT22;2684;48.154;11.538;2022-09-09T11:48:37;22.00;99.90
5324;DHT22;2684;48.154;11.538;2022-09-09T11:51:07;21.80;99.90
5324;DHT22;2684;48.154;11.538;2022-09-09T11:53:35;21.40;99.90
5324;DHT22;2684;48.154;11.538;2022-09-09T11:56:12;21.40;99.90
5324;DHT22;2684;48.154;11.538;2022-09-09T11:58:43;21.10;99.90
5324;DHT22;2684;48.154;11.538;2022-09-09T12:01:36;20.60;99.90
5324;DHT22;2684;48.154;11.538;2022-09-09T12:04:18;20.20;99.90
5324;DHT22;2684;48.154;11.538;2022-09-09T12:06:51;19.90;99.90
5324;DHT22;2684;48.154;11.538;2022-09-09T12:09:23;19.90;99.90
5324;DHT22;2684;48.154;11.538;2022-09-09T12:11:51;20.20;99.90
5324;DHT22;2684;48.154;11.538;2022-09-09T12:14:35;20.20;99.90
5324;DHT22;2684;48.154;11.538;2022-09-09T12:17:10;20.30;99.90
5324;DHT22;2684;48.154;11.538;2022-09-09T12:19:45;20.50;99.90
5324;DHT22;2684;48.154;11.538;2022-09-09T12:22:20;20.90;99.90
5324;DHT22;2684;48.154;11.538;2022-09-09T12:24:57;21.00;99.90
5324;DHT22;2684;48.154;11.538;2022-09-09T12:27:30;21.10;99.90
5324;DHT22;2684;48.154;11.538;2022-09-09T12:30:02;21.10;99.90
5324;DHT22;2684;48.154;11.538;2022-09-09T12:32:30;21.20;99.90
5324;DHT22;2684;48.154;11.538;2022-09-09T12:35:00;21.10;99.90
5324;DHT22;2684;48.154;11.538;2022-09-09T12:37:32;21.10;99.90
5324;DHT22;2684;48.154;11.538;2022-09-09T12:40:02;21.10;99.90
5324;DHT22;2684;48.154;11.538;2022-09-09T12:42:30;21.10;99.90
5324;DHT22;2684;48.154;11.538;2022-09-09T12:45:00;21.20;99.90
5324;DHT22;2684;48.154;11.538;2022-09-09T12:47:37;21.40;99.90
5324;DHT22;2684;48.154;11.538;2022-09-09T12:50:15;21.40;99.90
5324;DHT22;2684;48.154;11.538;2022-09-09T12:52:43;21.70;99.90
5324;DHT22;2684;48.154;11.538;2022-09-09T12:55:17;21.90;99.90
5324;DHT22;2684;48.154;11.538;2022-09-09T12:57:44;22.10;99.90
5324;DHT22;2684;48.154;11.538;2022-09-09T13:00:15;22.00;99.90
5324;DHT22;2684;48.154;11.538;2022-09-09T13:02:48;21.70;99.90
5324;DHT22;2684;48.154;11.538;2022-09-09T13:05:20;21.50;99.90
5324;DHT22;2684;48.154;11.538;2022-09-09T13:07:47;21.40;99.90
5324;DHT22;2684;48.154;11.538;2022-09-09T13:10:19;21.10;99.90
5324;DHT22;2684;48.154;11.538;2022-09-09T13:12:47;20.90;99.90
5324;DHT22;2684;48.154;11.538;2022-09-09T13:15:20;20.50;99.90
5324;DHT22;2684;48.154;11.538;2022-09-09T13:17:53;20.50;99.90
5324;DHT22;2684;48.154;11.538;2022-09-09T13:20:23;20.40;99.90
5324;DHT22;2684;48.154;11.538;2022-09-09T13:22:52;20.50;99.90
5324;DHT22;2684;48.154;11.538;2022-09-09T13:25:25;20.40;99.90
5324;DHT22;2684;48.154;11.538;2022-09-09T13:27:56;20.50;99.90
5324;DHT22;2684;48.154;11.538;2022-09-09T13:30:27;20.90;99.90
5324;DHT22;2684;48.154;11.538;2022-09-09T13:33:05;21.40;99.90
5324;DHT22;2684;48.154;11.538;2022-09-09T13:35:35;21.50;99.90
5324;DHT22;2684;48.154;11.538;2022-09-09T13:38:13;21.50;99.90
5324;DHT22;2684;48.154;11.538;2022-09-09T13:40:52;21.20;99.90
5324;DHT22;2684;48.154;11.538;2022-09-09T13:43:22;20.90;99.90
5324;DHT22;2684;48.154;11.538;2022-09-09T13:45:56;20.90;99.90
5324;DHT22;2684;48.154;11.538;2022-09-09T13:48:24;20.80;99.90
5324;DHT22;2684;48.154;11.538;2022-09-09T13:51:01;20.60;99.90
5324;DHT22;2684;48.154;11.538;2022-09-09T13:53:28;20.50;99.90
5324;DHT22;2684;48.154;11.538;2022-09-09T13:55:56;20.30;99.90
5324;DHT22;2684;48.154;11.538;2022-09-09T13:58:24;20.10;99.90
5324;DHT22;2684;48.154;11.538;2022-09-09T14:00:52;19.90;99.90
5324;DHT22;2684;48.154;11.538;2022-09-09T14:03:19;19.80;99.90
5324;DHT22;2684;48.154;11.538;2022-09-09T14:05:46;19.80;99.90
5324;DHT22;2684;48.154;11.538;2022-09-09T14:08:24;19.60;99.90
5324;DHT22;2684;48.154;11.538;2022-09-09T14:10:51;19.50;99.90
5324;DHT22;2684;48.154;11.538;2022-09-09T14:13:19;19.50;99.90
5324;DHT22;2684;48.154;11.538;2022-09-09T14:15:48;19.50;99.90
5324;DHT22;2684;48.154;11.538;2022-09-09T14:18:16;19.50;99.90
5324;DHT22;2684;48.154;11.538;2022-09-09T14:20:42;19.60;99.90
5324;DHT22;2684;48.154;11.538;2022-09-09T14:23:11;19.50;99.90
5324;DHT22;2684;48.154;11.538;2022-09-09T14:25:41;19.40;99.90
5324;DHT22;2684;48.154;11.538;2022-09-09T14:28:10;19.50;99.90
5324;DHT22;2684;48.154;11.538;2022-09-09T14:30:38;19.60;99.90
5324;DHT22;2684;48.154;11.538;2022-09-09T14:33:06;19.60;99.90
5324;DHT22;2684;48.154;11.538;2022-09-09T14:35:34;19.60;99.90
5324;DHT22;2684;48.154;11.538;2022-09-09T14:38:02;19.60;99.90
5324;DHT22;2684;48.154;11.538;2022-09-09T14:40:29;19.70;99.90
5324;DHT22;2684;48.154;11.538;2022-09-09T14:42:58;19.50;99.90
5324;DHT22;2684;48.154;11.538;2022-09-09T14:45:25;19.30;99.90
5324;DHT22;2684;48.154;11.538;2022-09-09T14:47:52;19.20;99.90
5324;DHT22;2684;48.154;11.538;2022-09-09T14:50:19;19.00;99.90
5324;DHT22;2684;48.154;11.538;2022-09-09T14:52:46;19.00;99.90
5324;DHT22;2684;48.154;11.538;2022-09-09T14:55:14;18.90;99.90
5324;DHT22;2684;48.154;11.538;2022-09-09T14:57:41;18.90;99.90
5324;DHT22;2684;48.154;11.538;2022-09-09T15:00:11;19.00;99.90
5324;DHT22;2684;48.154;11.538;2022-09-09T15:02:38;19.10;99.90
5324;DHT22;2684;48.154;11.538;2022-09-09T15:05:06;19.00;99.90
5324;DHT22;2684;48.154;11.538;2022-09-09T15:07:33;19.00;99.90
5324;DHT22;2684;48.154;11.538;2022-09-09T15:10:02;19.00;99.90
5324;DHT22;2684;48.154;11.538;2022-09-09T15:12:29;19.00;99.90
5324;DHT22;2684;48.154;11.538;2022-09-09T15:14:56;19.00;99.90
5324;DHT22;2684;48.154;11.538;2022-09-09T15:17:24;19.00;99.90
5324;DHT22;2684;48.154;11.538;2022-09-09T15:19:53;19.00;99.90
5324;DHT22;2684;48.154;11.538;2022-09-09T15:22:20;19.10;99.90
5324;DHT22;2684;48.154;11.538;2022-09-09T15:24:47;19.20;99.90
5324;DHT22;2684;48.154;11.538;2022-09-09T15:27:14;19.20;99.90
5324;DHT22;2684;48.154;11.538;2022-09-09T15:29:41;19.30;99.90
5324;DHT22;2684;48.154;11.538;2022-09-09T15:32:09;19.60;99.90
5324;DHT22;2684;48.154;11.538;2022-09-09T15:34:38;19.80;99.90
5324;DHT22;2684;48.154;11.538;2022-09-09T15:37:05;19.80;99.90
5324;DHT22;2684;48.154;11.538;2022-09-09T15:39:32;19.80;99.90
5324;DHT22;2684;48.154;11.538;2022-09-09T15:41:59;19.70;99.90
5324;DHT22;2684;48.154;11.538;2022-09-09T15:44:27;20.20;99.90
5324;DHT22;2684;48.154;11.538;2022-09-09T15:46:54;21.20;99.90
5324;DHT22;2684;48.154;11.538;2022-09-09T15:49:22;22.40;99.90
5324;DHT22;2684;48.154;11.538;2022-09-09T15:51:54;23.50;99.90
5324;DHT22;2684;48.154;11.538;2022-09-09T15:54:23;23.50;99.90
5324;DHT22;2684;48.154;11.538;2022-09-09T15:56:52;23.10;99.90
5324;DHT22;2684;48.154;11.538;2022-09-09T15:59:20;22.90;99.90
5324;DHT22;2684;48.154;11.538;2022-09-09T16:01:47;22.50;99.90
5324;DHT22;2684;48.154;11.538;2022-09-09T16:04:16;21.40;99.90
5324;DHT22;2684;48.154;11.538;2022-09-09T16:06:49;20.70;99.90
5324;DHT22;2684;48.154;11.538;2022-09-09T16:09:18;20.30;99.90
5324;DHT22;2684;48.154;11.538;2022-09-09T16:11:45;20.00;99.90
5324;DHT22;2684;48.154;11.538;2022-09-09T16:14:12;19.70;99.90
5324;DHT22;2684;48.154;11.538;2022-09-09T16:16:41;19.60;99.90
5324;DHT22;2684;48.154;11.538;2022-09-09T16:19:10;19.60;99.90
5324;DHT22;2684;48.154;11.538;2022-09-09T16:21:39;19.80;99.90